createdAt,value
2018-12-29T00:00:11.256Z,81.49
2018-12-29T00:01:11.192Z,80.66
2018-12-29T00:02:11.181Z,80.14
2018-12-29T00:03:11.167Z,80.49
2018-12-29T00:04:11.156Z,80.90
2018-12-29T00:05:11.167Z,80.66
2018-12-29T00:06:11.150Z,80.07
2018-12-29T00:07:11.123Z,81.42
2018-12-29T00:08:11.114Z,81.11
2018-12-29T00:09:11.097Z,81.07
2018-12-29T00:10:11.116Z,80.80
2018-12-29T00:11:11.093Z,80.24
2018-12-29T00:12:11.091Z,79.76
2018-12-29T00:13:11.054Z,81.01
2018-12-29T00:14:11.041Z,82.63
2018-12-29T00:15:11.057Z,81.49
2018-12-29T00:16:11.023Z,80.76
2018-12-29T00:17:11.011Z,80.24
2018-12-29T00:18:11.016Z,80.35
2018-12-29T00:19:10.989Z,80.04
2018-12-29T00:20:11.000Z,80.49
2018-12-29T00:21:10.966Z,81.52
2018-12-29T00:22:10.955Z,81.11
2018-12-29T00:23:10.946Z,82.25
2018-12-29T00:24:10.958Z,82.08
2018-12-29T00:25:10.956Z,82.81
2018-12-29T00:26:10.909Z,82.91
2018-12-29T00:27:10.901Z,83.33
2018-12-29T00:28:10.890Z,84.01
2018-12-29T00:29:10.887Z,82.67
2018-12-29T00:30:10.903Z,83.18
2018-12-29T00:31:10.908Z,82.81
2018-12-29T00:32:10.860Z,82.15
2018-12-29T00:33:10.839Z,81.98
2018-12-29T00:34:10.827Z,83.12
2018-12-29T00:35:10.810Z,83.22
2018-12-29T00:36:10.823Z,84.09
2018-12-29T00:37:10.799Z,84.82
2018-12-29T00:38:10.781Z,84.41
2018-12-29T00:39:10.764Z,84.41
2018-12-29T00:40:10.758Z,84.58
2018-12-29T00:41:10.779Z,84.33
2018-12-29T00:42:10.733Z,83.81
2018-12-29T00:43:10.735Z,84.43
2018-12-29T00:44:10.710Z,83.81
2018-12-29T00:45:10.700Z,84.19
2018-12-29T00:46:10.702Z,83.04
2018-12-29T00:47:10.701Z,82.77
2018-12-29T00:48:10.668Z,84.01
2018-12-29T00:49:10.672Z,84.47
2018-12-29T00:50:10.650Z,84.74
2018-12-29T00:51:10.636Z,84.68
2018-12-29T00:52:10.649Z,85.55
2018-12-29T00:53:10.620Z,86.03
2018-12-29T00:54:10.598Z,85.20
2018-12-29T00:55:10.632Z,86.34
2018-12-29T00:56:10.577Z,85.30
2018-12-29T00:57:10.594Z,86.13
2018-12-29T00:58:10.556Z,85.30
2018-12-29T00:59:10.546Z,84.78
2018-12-29T01:00:10.534Z,85.36
2018-12-29T01:01:10.542Z,84.64
2018-12-29T01:02:10.536Z,84.64
2018-12-29T01:03:10.498Z,84.84
2018-12-29T01:04:10.487Z,84.95
2018-12-29T01:05:10.479Z,84.64
2018-12-29T01:06:10.465Z,84.64
2018-12-29T01:07:10.520Z,84.84
2018-12-29T01:08:10.443Z,84.95
2018-12-29T01:09:10.435Z,84.53
2018-12-29T01:10:10.421Z,85.05
2018-12-29T01:11:10.413Z,84.74
2018-12-29T01:12:10.406Z,85.99
2018-12-29T01:13:10.428Z,85.36
2018-12-29T01:14:10.376Z,85.16
2018-12-29T01:15:10.432Z,85.26
2018-12-29T01:16:10.356Z,85.47
2018-12-29T01:17:10.343Z,85.16
2018-12-29T01:18:10.358Z,84.74
2018-12-29T01:19:10.367Z,84.95
2018-12-29T01:20:10.311Z,84.64
2018-12-29T01:21:10.299Z,84.64
2018-12-29T01:22:10.299Z,85.99
2018-12-29T01:23:10.308Z,85.99
2018-12-29T01:24:10.267Z,85.64
2018-12-29T01:25:10.286Z,84.53
2018-12-29T01:26:10.247Z,84.01
2018-12-29T01:27:10.235Z,85.47
2018-12-29T01:28:10.274Z,85.10
2018-12-29T01:29:10.218Z,84.64
2018-12-29T01:30:10.208Z,84.78
2018-12-29T01:31:10.306Z,83.95
2018-12-29T01:32:10.197Z,84.27
2018-12-29T01:33:10.234Z,84.68
2018-12-29T01:34:10.210Z,84.78
2018-12-29T01:35:10.147Z,84.82
2018-12-29T01:36:10.163Z,85.44
2018-12-29T01:37:10.127Z,86.69
2018-12-29T01:38:10.143Z,86.83
2018-12-29T01:39:10.126Z,86.94
2018-12-29T01:40:10.089Z,86.94
2018-12-29T01:41:10.079Z,87.56
2018-12-29T01:42:10.082Z,87.77
2018-12-29T01:43:10.057Z,87.32
2018-12-29T01:44:10.114Z,87.38
2018-12-29T01:45:17.114Z,86.34
2018-12-29T01:46:11.030Z,86.24
2018-12-29T01:47:10.013Z,86.13
2018-12-29T01:48:10.013Z,86.44
2018-12-29T01:49:09.989Z,86.34
2018-12-29T01:50:10.017Z,86.03
2018-12-29T01:51:09.971Z,86.65
2018-12-29T01:52:09.957Z,86.86
2018-12-29T01:53:09.946Z,86.13
2018-12-29T01:54:09.936Z,85.72
2018-12-29T01:55:09.948Z,86.13
2018-12-29T01:56:09.957Z,86.44
2018-12-29T01:57:09.904Z,86.13
2018-12-29T01:58:09.891Z,86.55
2018-12-29T01:59:09.881Z,85.72
2018-12-29T02:00:09.889Z,86.44
2018-12-29T02:01:09.856Z,86.93
2018-12-29T02:02:09.859Z,86.03
2018-12-29T02:03:09.843Z,86.24
2018-12-29T02:04:09.825Z,87.07
2018-12-29T02:05:09.838Z,87.59
2018-12-29T02:06:09.804Z,87.11
2018-12-29T02:07:09.789Z,87.52
2018-12-29T02:08:09.822Z,87.90
2018-12-29T02:09:09.783Z,87.69
2018-12-29T02:10:09.783Z,87.27
2018-12-29T02:11:09.760Z,87.90
2018-12-29T02:12:09.735Z,86.96
2018-12-29T02:13:09.725Z,86.86
2018-12-29T02:14:09.733Z,87.48
2018-12-29T02:15:09.705Z,87.55
2018-12-29T02:16:09.780Z,86.82
2018-12-29T02:17:09.679Z,86.72
2018-12-29T02:18:09.669Z,86.86
2018-12-29T02:19:09.659Z,86.96
2018-12-29T02:20:09.660Z,86.96
2018-12-29T02:21:09.671Z,86.96
2018-12-29T02:22:09.624Z,86.76
2018-12-29T02:23:09.615Z,86.65
2018-12-29T02:24:09.605Z,86.76
2018-12-29T02:25:09.595Z,87.27
2018-12-29T02:26:09.594Z,87.48
2018-12-29T02:27:09.596Z,86.76
2018-12-29T02:28:09.560Z,86.55
2018-12-29T02:29:09.551Z,86.55
2018-12-29T02:30:09.539Z,86.76
2018-12-29T02:31:09.527Z,87.27
2018-12-29T02:32:09.548Z,87.38
2018-12-29T02:33:09.509Z,87.59
2018-12-29T02:34:09.501Z,87.69
2018-12-29T02:35:09.490Z,87.96
2018-12-29T02:36:09.470Z,86.72
2018-12-29T02:37:09.484Z,86.19
2018-12-29T02:38:09.466Z,86.13
2018-12-29T02:39:09.440Z,86.86
2018-12-29T02:40:09.427Z,87.69
2018-12-29T02:41:09.419Z,87.11
2018-12-29T02:42:09.454Z,88.00
2018-12-29T02:43:09.393Z,88.00
2018-12-29T02:44:09.403Z,88.00
2018-12-29T02:45:09.373Z,87.59
2018-12-29T02:46:09.361Z,86.72
2018-12-29T02:47:09.351Z,86.09
2018-12-29T02:48:09.361Z,86.65
2018-12-29T02:49:09.333Z,87.27
2018-12-29T02:50:09.333Z,87.38
2018-12-29T02:51:09.307Z,88.00
2018-12-29T02:52:09.296Z,87.45
2018-12-29T02:53:09.310Z,87.27
2018-12-29T02:54:09.279Z,87.27
2018-12-29T02:55:09.266Z,87.24
2018-12-29T02:56:09.264Z,86.72
2018-12-29T02:57:09.241Z,86.72
2018-12-29T02:58:09.254Z,86.86
2018-12-29T02:59:09.218Z,86.61
2018-12-29T03:00:09.205Z,86.86
2018-12-29T03:01:09.198Z,86.86
2018-12-29T03:02:09.204Z,87.96
2018-12-29T03:03:09.198Z,87.45
2018-12-29T03:04:09.163Z,87.65
2018-12-29T03:05:09.149Z,87.30
2018-12-29T03:06:09.139Z,86.72
2018-12-29T03:07:09.128Z,86.41
2018-12-29T03:08:09.170Z,86.96
2018-12-29T03:09:09.107Z,87.73
2018-12-29T03:10:09.095Z,89.46
2018-12-29T03:11:09.085Z,89.15
2018-12-29T03:12:09.071Z,89.15
2018-12-29T03:13:09.089Z,88.69
2018-12-29T03:14:09.080Z,88.00
2018-12-29T03:15:09.040Z,87.86
2018-12-29T03:16:09.029Z,87.76
2018-12-29T03:17:09.018Z,87.79
2018-12-29T03:18:09.008Z,87.79
2018-12-29T03:19:09.021Z,87.69
2018-12-29T03:20:09.009Z,88.31
2018-12-29T03:21:08.982Z,88.42
2018-12-29T03:22:08.964Z,88.31
2018-12-29T03:23:08.954Z,88.62
2018-12-29T03:24:08.972Z,87.79
2018-12-29T03:25:08.927Z,88.77
2018-12-29T03:26:08.918Z,87.90
2018-12-29T03:27:08.930Z,88.35
2018-12-29T03:28:08.895Z,88.21
2018-12-29T03:29:08.911Z,88.87
2018-12-29T03:30:08.875Z,87.84
2018-12-29T03:31:08.865Z,89.02
2018-12-29T03:32:08.853Z,89.95
2018-12-29T03:33:08.857Z,89.39
2018-12-29T03:34:08.830Z,89.60
2018-12-29T03:35:08.849Z,89.75
2018-12-29T03:36:08.874Z,89.50
2018-12-29T03:37:08.797Z,89.64
2018-12-29T03:38:08.789Z,89.43
2018-12-29T03:39:08.797Z,89.95
2018-12-29T03:40:08.792Z,89.79
2018-12-29T03:41:08.752Z,90.83
2018-12-29T03:42:08.743Z,90.47
2018-12-29T03:43:08.731Z,90.62
2018-12-29T03:44:08.719Z,90.16
2018-12-29T03:45:08.742Z,90.58
2018-12-29T03:46:08.704Z,89.64
2018-12-29T03:47:08.690Z,90.02
2018-12-29T03:48:08.677Z,90.79
2018-12-29T03:49:08.663Z,90.75
2018-12-29T03:50:08.678Z,89.60
2018-12-29T03:51:08.662Z,89.60
2018-12-29T03:52:08.630Z,89.81
2018-12-29T03:53:08.620Z,89.54
2018-12-29T03:54:08.611Z,90.58
2018-12-29T03:55:08.625Z,90.37
2018-12-29T03:56:08.587Z,91.00
2018-12-29T03:57:08.623Z,90.64
2018-12-29T03:58:08.566Z,90.23
2018-12-29T03:59:08.555Z,90.44
2018-12-29T04:00:08.580Z,90.54
2018-12-29T04:01:08.535Z,89.50
2018-12-29T04:02:08.521Z,89.92
2018-12-29T04:03:08.525Z,90.54
2018-12-29T04:04:08.506Z,90.12
2018-12-29T04:05:08.549Z,90.50
2018-12-29T04:06:08.478Z,90.39
2018-12-29T04:07:08.465Z,89.46
2018-12-29T04:08:08.453Z,88.84
2018-12-29T04:09:08.452Z,89.50
2018-12-29T04:10:08.432Z,90.47
2018-12-29T04:11:08.452Z,90.89
2018-12-29T04:12:08.417Z,91.41
2018-12-29T04:13:08.403Z,91.10
2018-12-29T04:14:08.388Z,90.75
2018-12-29T04:15:08.392Z,90.60
2018-12-29T04:16:08.398Z,89.46
2018-12-29T04:17:08.358Z,89.15
2018-12-29T04:18:08.343Z,89.81
2018-12-29T04:19:08.336Z,90.23
2018-12-29T04:20:08.323Z,90.91
2018-12-29T04:21:08.374Z,90.19
2018-12-29T04:22:08.298Z,90.50
2018-12-29T04:23:08.289Z,89.46
2018-12-29T04:24:08.277Z,89.39
2018-12-29T04:25:08.268Z,90.33
2018-12-29T04:26:08.286Z,90.50
2018-12-29T04:27:08.255Z,90.50
2018-12-29T04:28:08.234Z,89.50
2018-12-29T04:29:08.221Z,90.12
2018-12-29T04:30:08.215Z,90.58
2018-12-29T04:31:08.200Z,90.89
2018-12-29T04:32:08.213Z,91.00
2018-12-29T04:33:08.201Z,91.00
2018-12-29T04:34:08.166Z,92.14
2018-12-29T04:35:08.156Z,91.89
2018-12-29T04:36:08.144Z,90.64
2018-12-29T04:37:08.164Z,89.60
2018-12-29T04:38:08.120Z,90.26
2018-12-29T04:39:08.128Z,90.58
2018-12-29T04:40:08.102Z,91.00
2018-12-29T04:41:08.087Z,90.69
2018-12-29T04:42:08.265Z,91.31
2018-12-29T04:43:08.070Z,91.52
2018-12-29T04:44:08.070Z,90.89
2018-12-29T04:45:08.059Z,91.00
2018-12-29T04:46:08.038Z,90.89
2018-12-29T04:47:08.024Z,90.44
2018-12-29T04:48:08.037Z,90.64
2018-12-29T04:49:07.999Z,90.02
2018-12-29T04:50:07.992Z,90.54
2018-12-29T04:51:07.986Z,90.50
2018-12-29T04:52:07.975Z,89.67
2018-12-29T04:53:07.982Z,90.70
2018-12-29T04:54:07.945Z,89.56
2018-12-29T04:55:07.932Z,89.77
2018-12-29T04:56:07.926Z,89.67
2018-12-29T04:57:07.911Z,89.36
2018-12-29T04:58:07.934Z,89.87
2018-12-29T04:59:07.887Z,89.15
2018-12-29T05:00:07.876Z,89.60
2018-12-29T05:01:07.876Z,89.85
2018-12-29T05:02:07.855Z,90.69
2018-12-29T05:03:08.035Z,91.31
2018-12-29T05:04:07.861Z,91.68
2018-12-29T05:05:07.821Z,90.91
2018-12-29T05:06:07.811Z,89.98
2018-12-29T05:07:07.802Z,90.08
2018-12-29T05:08:07.788Z,89.70
2018-12-29T05:09:07.798Z,90.75
2018-12-29T05:10:07.774Z,90.47
2018-12-29T05:11:07.754Z,90.33
2018-12-29T05:12:07.743Z,90.44
2018-12-29T05:13:07.733Z,90.64
2018-12-29T05:14:07.757Z,90.54
2018-12-29T05:15:07.708Z,90.44
2018-12-29T05:16:12.757Z,90.44
2018-12-29T05:17:08.686Z,90.95
2018-12-29T05:18:07.676Z,90.85
2018-12-29T05:19:07.694Z,90.95
2018-12-29T05:20:07.655Z,90.64
2018-12-29T05:21:07.649Z,90.54
2018-12-29T05:22:07.677Z,90.33
2018-12-29T05:23:07.622Z,90.39
2018-12-29T05:24:07.641Z,89.46
2018-12-29T05:25:07.603Z,90.50
2018-12-29T05:26:07.586Z,90.50
2018-12-29T05:27:07.591Z,90.91
2018-12-29T05:28:07.567Z,89.94
2018-12-29T05:29:07.582Z,89.52
2018-12-29T05:30:07.638Z,89.62
2018-12-29T05:31:07.551Z,89.77
2018-12-29T05:32:07.524Z,90.64
2018-12-29T05:33:07.529Z,90.75
2018-12-29T05:34:07.532Z,90.95
2018-12-29T05:35:07.493Z,90.23
2018-12-29T05:36:07.491Z,91.89
2018-12-29T05:37:07.464Z,90.95
2018-12-29T05:38:07.457Z,90.16
2018-12-29T05:39:07.508Z,90.85
2018-12-29T05:40:07.437Z,90.75
2018-12-29T05:41:07.421Z,90.44
2018-12-29T05:42:07.413Z,90.29
2018-12-29T05:43:07.399Z,90.29
2018-12-29T05:44:07.390Z,90.08
2018-12-29T05:45:07.427Z,89.56
2018-12-29T05:46:07.374Z,90.44
2018-12-29T05:47:07.357Z,89.77
2018-12-29T05:48:07.356Z,90.75
2018-12-29T05:49:07.338Z,90.33
2018-12-29T05:50:07.345Z,90.54
2018-12-29T05:51:07.343Z,90.69
2018-12-29T05:52:07.304Z,90.89
2018-12-29T05:53:07.291Z,91.72
2018-12-29T05:54:07.281Z,91.62
2018-12-29T05:55:07.297Z,92.03
2018-12-29T05:56:07.264Z,92.03
2018-12-29T05:57:07.255Z,92.03
2018-12-29T05:58:07.247Z,91.99
2018-12-29T05:59:07.226Z,91.52
2018-12-29T06:00:07.237Z,91.41
2018-12-29T06:01:07.202Z,91.41
2018-12-29T06:02:07.196Z,91.16
2018-12-29T06:03:07.186Z,91.72
2018-12-29T06:04:07.198Z,91.31
2018-12-29T06:05:07.184Z,92.14
2018-12-29T06:06:07.147Z,92.35
2018-12-29T06:07:07.142Z,92.03
2018-12-29T06:08:07.125Z,92.03
2018-12-29T06:09:07.115Z,92.03
2018-12-29T06:10:07.139Z,92.35
2018-12-29T06:11:07.094Z,92.66
2018-12-29T06:12:07.082Z,92.03
2018-12-29T06:13:07.077Z,92.03
2018-12-29T06:14:07.063Z,91.93
2018-12-29T06:15:07.073Z,91.97
2018-12-29T06:16:07.059Z,92.39
2018-12-29T06:17:07.030Z,93.05
2018-12-29T06:18:07.016Z,94.10
2018-12-29T06:19:07.006Z,94.68
2018-12-29T06:20:07.032Z,94.37
2018-12-29T06:21:06.993Z,94.01
2018-12-29T06:22:06.998Z,93.80
2018-12-29T06:23:06.969Z,92.55
2018-12-29T06:24:06.949Z,91.99
2018-12-29T06:25:06.982Z,92.10
2018-12-29T06:26:06.928Z,91.78
2018-12-29T06:27:06.917Z,92.41
2018-12-29T06:28:06.925Z,91.99
2018-12-29T06:29:06.904Z,92.41
2018-12-29T06:30:06.884Z,91.16
2018-12-29T06:31:06.897Z,91.06
2018-12-29T06:32:06.862Z,91.68
2018-12-29T06:33:06.853Z,92.10
2018-12-29T06:34:06.843Z,91.33
2018-12-29T06:35:06.839Z,91.12
2018-12-29T06:36:06.840Z,91.68
2018-12-29T06:37:06.807Z,90.85
2018-12-29T06:38:06.795Z,90.75
2018-12-29T06:39:06.783Z,91.27
2018-12-29T06:40:06.773Z,91.16
2018-12-29T06:41:06.796Z,91.16
2018-12-29T06:42:06.751Z,91.53
2018-12-29T06:43:06.740Z,90.50
2018-12-29T06:44:06.729Z,90.50
2018-12-29T06:45:06.718Z,90.77
2018-12-29T06:46:06.730Z,90.29
2018-12-29T06:47:06.719Z,90.45
2018-12-29T06:48:06.687Z,90.60
2018-12-29T06:49:06.673Z,90.19
2018-12-29T06:50:06.663Z,90.81
2018-12-29T06:51:06.676Z,90.91
2018-12-29T06:52:06.644Z,91.85
2018-12-29T06:53:06.647Z,91.47
2018-12-29T06:54:06.629Z,91.37
2018-12-29T06:55:06.606Z,91.78
2018-12-29T06:56:06.623Z,92.30
2018-12-29T06:57:06.599Z,91.99
2018-12-29T06:58:06.577Z,92.35
2018-12-29T06:59:06.563Z,92.55
2018-12-29T07:00:06.552Z,93.24
2018-12-29T07:01:06.567Z,92.93
2018-12-29T07:02:06.530Z,93.80
2018-12-29T07:03:06.519Z,93.35
2018-12-29T07:04:06.524Z,93.10
2018-12-29T07:05:06.499Z,92.36
2018-12-29T07:06:06.509Z,92.26
2018-12-29T07:07:06.475Z,92.20
2018-12-29T07:08:06.465Z,92.30
2018-12-29T07:09:06.455Z,92.51
2018-12-29T07:10:06.464Z,92.82
2018-12-29T07:11:06.459Z,92.51
2018-12-29T07:12:06.434Z,92.68
2018-12-29T07:13:06.424Z,92.26
2018-12-29T07:14:06.402Z,92.16
2018-12-29T07:15:06.388Z,91.78
2018-12-29T07:16:06.408Z,91.99
2018-12-29T07:17:06.368Z,92.20
2018-12-29T07:18:06.360Z,92.61
2018-12-29T07:19:06.345Z,92.86
2018-12-29T07:20:06.334Z,93.66
2018-12-29T07:21:06.480Z,92.93
2018-12-29T07:22:06.319Z,92.93
2018-12-29T07:23:06.301Z,93.55
2018-12-29T07:24:06.288Z,93.76
2018-12-29T07:25:06.278Z,93.66
2018-12-29T07:26:06.270Z,93.14
2018-12-29T07:27:06.277Z,93.03
2018-12-29T07:28:06.257Z,93.80
2018-12-29T07:29:06.234Z,93.76
2018-12-29T07:30:06.223Z,93.45
2018-12-29T07:31:06.215Z,93.30
2018-12-29T07:32:06.235Z,92.72
2018-12-29T07:33:06.189Z,92.61
2018-12-29T07:34:06.195Z,93.66
2018-12-29T07:35:06.173Z,92.93
2018-12-29T07:36:06.161Z,93.87
2018-12-29T07:37:06.175Z,93.72
2018-12-29T07:38:06.133Z,92.88
2018-12-29T07:39:06.122Z,92.47
2018-12-29T07:40:06.129Z,92.11
2018-12-29T07:41:06.113Z,91.39
2018-12-29T07:42:06.113Z,91.39
2018-12-29T07:43:06.079Z,91.43
2018-12-29T07:44:06.066Z,91.85
2018-12-29T07:45:06.055Z,91.85
2018-12-29T07:46:06.046Z,92.57
2018-12-29T07:47:06.064Z,92.36
2018-12-29T07:48:06.023Z,92.78
2018-12-29T07:49:06.012Z,92.05
2018-12-29T07:50:06.005Z,92.16
2018-12-29T07:51:05.989Z,91.95
2018-12-29T07:52:06.002Z,92.78
2018-12-29T07:53:05.975Z,92.74
2018-12-29T07:54:05.974Z,92.05
2018-12-29T07:55:05.948Z,92.26
2018-12-29T07:56:05.939Z,92.36
2018-12-29T07:57:05.945Z,92.88
2018-12-29T07:58:05.912Z,93.30
2018-12-29T07:59:05.914Z,93.14
2018-12-29T08:00:05.891Z,93.55
2018-12-29T08:01:05.877Z,93.87
2018-12-29T08:02:05.889Z,94.28
2018-12-29T08:03:05.855Z,94.90
2018-12-29T08:04:05.843Z,94.80
2018-12-29T08:05:05.840Z,95.01
2018-12-29T08:06:05.822Z,94.24
2018-12-29T08:07:05.834Z,93.88
2018-12-29T08:08:05.800Z,93.05
2018-12-29T08:09:05.788Z,92.43
2018-12-29T08:10:05.778Z,92.11
2018-12-29T08:11:05.772Z,92.11
2018-12-29T08:12:05.790Z,92.01
2018-12-29T08:13:05.750Z,92.53
2018-12-29T08:14:05.734Z,92.53
2018-12-29T08:15:05.722Z,91.91
2018-12-29T08:16:05.712Z,92.18
2018-12-29T08:17:05.733Z,92.01
2018-12-29T08:18:05.698Z,91.76
2018-12-29T08:19:05.686Z,92.28
2018-12-29T08:20:05.673Z,92.74
2018-12-29T08:21:05.680Z,92.43
2018-12-29T08:22:05.647Z,92.94
2018-12-29T08:23:05.676Z,92.84
2018-12-29T08:24:05.634Z,92.18
2018-12-29T08:25:05.613Z,92.07
2018-12-29T08:26:05.605Z,92.01
2018-12-29T08:27:05.592Z,91.91
2018-12-29T08:28:05.599Z,92.32
2018-12-29T08:29:05.567Z,92.74
2018-12-29T08:30:05.562Z,92.43
2018-12-29T08:31:05.548Z,92.32
2018-12-29T08:32:05.534Z,92.32
2018-12-29T08:33:05.545Z,92.43
2018-12-29T08:34:06.994Z,92.43
2018-12-29T08:35:05.498Z,92.74
2018-12-29T08:36:05.492Z,92.28
2018-12-29T08:37:05.480Z,91.97
2018-12-29T08:38:05.492Z,91.66
2018-12-29T08:39:05.454Z,91.86
2018-12-29T08:40:05.449Z,92.22
2018-12-29T08:41:05.433Z,92.38
2018-12-29T08:42:05.443Z,92.80
2018-12-29T08:43:05.433Z,92.38
2018-12-29T08:44:05.403Z,92.59
2018-12-29T08:45:05.396Z,92.38
2018-12-29T08:46:05.376Z,91.76
2018-12-29T08:47:05.366Z,92.18
2018-12-29T08:48:05.391Z,92.38
2018-12-29T08:49:05.345Z,92.07
2018-12-29T08:50:12.727Z,92.07
2018-12-29T08:51:06.323Z,92.90
2018-12-29T08:52:05.311Z,92.84
2018-12-29T08:53:05.324Z,93.68
2018-12-29T08:54:05.306Z,93.26
2018-12-29T08:55:05.277Z,93.78
2018-12-29T08:56:05.267Z,94.20
2018-12-29T08:57:05.255Z,94.15
2018-12-29T08:58:05.268Z,93.22
2018-12-29T08:59:05.940Z,93.01
2018-12-29T09:00:05.249Z,93.74
2018-12-29T09:01:05.212Z,93.63
2018-12-29T09:02:05.204Z,92.45
2018-12-29T09:03:05.212Z,91.97
2018-12-29T09:04:05.179Z,91.76
2018-12-29T09:05:05.166Z,92.01
2018-12-29T09:06:05.163Z,92.80
2018-12-29T09:07:05.145Z,93.95
2018-12-29T09:08:05.157Z,93.53
2018-12-29T09:09:05.121Z,92.28
2018-12-29T09:10:05.886Z,93.01
2018-12-29T09:11:05.100Z,92.76
2018-12-29T09:12:05.107Z,92.07
2018-12-29T09:13:05.112Z,92.80
2018-12-29T09:14:05.067Z,93.53
2018-12-29T09:15:05.055Z,93.74
2018-12-29T09:16:05.045Z,93.53
2018-12-29T09:17:11.878Z,93.43
2018-12-29T09:18:06.055Z,93.53
2018-12-29T09:19:05.033Z,93.07
2018-12-29T09:20:05.000Z,92.35
2018-12-29T09:21:04.989Z,92.24
2018-12-29T09:22:04.982Z,92.76
2018-12-29T09:23:04.967Z,92.69
2018-12-29T09:24:04.999Z,93.53
2018-12-29T09:25:04.947Z,93.38
2018-12-29T09:26:04.940Z,93.59
2018-12-29T09:27:04.923Z,93.38
2018-12-29T09:28:04.913Z,92.97
2018-12-29T09:29:04.922Z,92.97
2018-12-29T09:30:04.904Z,93.49
2018-12-29T09:31:04.879Z,92.76
2018-12-29T09:32:04.870Z,92.76
2018-12-29T09:33:04.858Z,92.72
2018-12-29T09:34:04.876Z,91.99
2018-12-29T09:35:04.836Z,91.78
2018-12-29T09:36:04.845Z,91.99
2018-12-29T09:37:04.813Z,92.41
2018-12-29T09:38:04.811Z,91.99
2018-12-29T09:39:04.838Z,92.35
2018-12-29T09:40:04.779Z,92.35
2018-12-29T09:41:04.769Z,92.76
2018-12-29T09:42:04.812Z,92.76
2018-12-29T09:43:04.750Z,92.76
2018-12-29T09:44:04.764Z,93.63
2018-12-29T09:45:04.726Z,93.32
2018-12-29T09:46:04.717Z,94.46
2018-12-29T09:47:04.704Z,93.84
2018-12-29T09:48:04.718Z,94.57
2018-12-29T09:49:04.706Z,94.63
2018-12-29T09:50:04.669Z,94.42
2018-12-29T09:51:04.658Z,93.02
2018-12-29T09:52:04.646Z,93.65
2018-12-29T09:53:04.636Z,92.30
2018-12-29T09:54:04.667Z,92.72
2018-12-29T09:55:04.613Z,92.61
2018-12-29T09:56:04.602Z,92.51
2018-12-29T09:57:04.592Z,92.41
2018-12-29T09:58:04.583Z,92.72
2018-12-29T09:59:04.609Z,92.57
2018-12-29T10:00:04.560Z,92.05
2018-12-29T10:01:04.554Z,92.16
2018-12-29T10:02:04.539Z,91.78
2018-12-29T10:03:04.535Z,92.30
2018-12-29T10:04:04.535Z,92.76
2018-12-29T10:05:04.505Z,93.80
2018-12-29T10:06:04.509Z,93.70
2018-12-29T10:07:04.480Z,93.23
2018-12-29T10:08:04.470Z,93.49
2018-12-29T10:09:04.510Z,93.80
2018-12-29T10:10:04.450Z,93.70
2018-12-29T10:11:04.447Z,93.84
2018-12-29T10:12:04.426Z,93.90
2018-12-29T10:13:04.415Z,94.53
2018-12-29T10:14:04.406Z,94.63
2018-12-29T10:15:04.416Z,94.42
2018-12-29T10:16:04.382Z,94.01
2018-12-29T10:17:04.395Z,94.17
2018-12-29T10:18:04.359Z,93.70
2018-12-29T10:19:04.348Z,93.70
2018-12-29T10:20:04.365Z,94.21
2018-12-29T10:21:04.327Z,94.58
2018-12-29T10:22:04.317Z,93.96
2018-12-29T10:23:04.318Z,94.27
2018-12-29T10:24:04.299Z,93.80
2018-12-29T10:25:04.307Z,93.59
2018-12-29T10:26:04.272Z,93.85
2018-12-29T10:27:04.268Z,94.68
2018-12-29T10:28:04.250Z,94.01
2018-12-29T10:29:04.267Z,94.21
2018-12-29T10:30:04.251Z,93.90
2018-12-29T10:31:04.219Z,94.48
2018-12-29T10:32:04.207Z,94.17
2018-12-29T10:33:04.196Z,93.96
2018-12-29T10:34:04.184Z,94.06
2018-12-29T10:35:04.210Z,93.65
2018-12-29T10:36:04.162Z,93.70
2018-12-29T10:37:04.151Z,94.01
2018-12-29T10:38:04.140Z,94.53
2018-12-29T10:39:04.135Z,94.42
2018-12-29T10:40:04.141Z,94.94
2018-12-29T10:41:04.136Z,95.15
2018-12-29T10:42:04.096Z,94.32
2018-12-29T10:43:04.086Z,95.77
2018-12-29T10:44:04.076Z,95.31
2018-12-29T10:45:04.090Z,94.58
2018-12-29T10:46:04.052Z,94.48
2018-12-29T10:47:04.050Z,93.85
2018-12-29T10:48:04.031Z,94.37
2018-12-29T10:49:04.020Z,94.68
2018-12-29T10:50:04.033Z,94.17
2018-12-29T10:51:03.997Z,94.21
2018-12-29T10:52:03.988Z,94.63
2018-12-29T10:53:03.982Z,94.84
2018-12-29T10:54:03.971Z,94.94
2018-12-29T10:55:03.980Z,94.68
2018-12-29T10:56:03.947Z,94.58
2018-12-29T10:57:04.025Z,94.27
2018-12-29T10:58:03.922Z,94.68
2018-12-29T10:59:03.937Z,95.00
2018-12-29T11:00:03.933Z,95.31
2018-12-29T11:01:03.889Z,94.54
2018-12-29T11:02:03.882Z,94.58
2018-12-29T11:03:03.871Z,94.54
2018-12-29T11:04:03.887Z,94.27
2018-12-29T11:05:03.853Z,95.10
2018-12-29T11:06:03.858Z,95.41
2018-12-29T11:07:03.875Z,94.43
2018-12-29T11:08:03.810Z,94.64
2018-12-29T11:09:03.808Z,94.12
2018-12-29T11:10:03.789Z,94.02
2018-12-29T11:11:03.831Z,94.29
2018-12-29T11:12:03.773Z,94.29
2018-12-29T11:13:03.761Z,94.08
2018-12-29T11:14:03.746Z,93.66
2018-12-29T11:15:03.734Z,93.46
2018-12-29T11:16:03.749Z,92.49
2018-12-29T11:17:03.729Z,92.28
2018-12-29T11:18:03.702Z,92.28
2018-12-29T11:19:03.690Z,92.22
2018-12-29T11:20:03.681Z,92.28
2018-12-29T11:21:03.691Z,91.76
2018-12-29T11:22:03.657Z,91.86
2018-12-29T11:23:03.676Z,92.18
2018-12-29T11:24:03.634Z,92.49
2018-12-29T11:25:03.624Z,92.07
2018-12-29T11:26:03.641Z,92.59
2018-12-29T11:27:03.606Z,93.31
2018-12-29T11:28:03.590Z,93.62
2018-12-29T11:29:03.614Z,92.80
2018-12-29T11:30:03.569Z,93.52
2018-12-29T11:31:03.581Z,93.21
2018-12-29T11:32:03.547Z,93.00
2018-12-29T11:33:03.539Z,93.10
2018-12-29T11:34:03.528Z,93.21
2018-12-29T11:35:03.535Z,93.37
2018-12-29T11:36:03.528Z,93.41
2018-12-29T11:37:03.491Z,93.10
2018-12-29T11:38:03.481Z,93.52
2018-12-29T11:39:03.472Z,93.52
2018-12-29T11:40:03.460Z,93.58
2018-12-29T11:41:03.489Z,92.85
2018-12-29T11:42:03.438Z,92.85
2018-12-29T11:43:03.429Z,92.65
2018-12-29T11:44:03.415Z,92.80
2018-12-29T11:45:03.405Z,93.10
2018-12-29T11:46:03.420Z,93.52
2018-12-29T11:47:03.411Z,93.06
2018-12-29T11:48:03.371Z,93.37
2018-12-29T11:49:03.362Z,92.55
2018-12-29T11:50:03.352Z,92.34
2018-12-29T11:51:03.381Z,92.55
2018-12-29T11:52:03.326Z,92.03
2018-12-29T11:53:03.344Z,92.19
2018-12-29T11:54:03.308Z,91.78
2018-12-29T11:55:03.292Z,91.88
2018-12-29T11:56:03.321Z,91.67
2018-12-29T11:57:03.271Z,91.78
2018-12-29T11:58:03.269Z,92.19
2018-12-29T11:59:03.257Z,92.09
2018-12-29T12:00:03.243Z,91.99
2018-12-29T12:01:03.227Z,91.78
2018-12-29T12:02:03.240Z,91.67
2018-12-29T12:03:03.204Z,91.67
2018-12-29T12:04:03.192Z,92.09
2018-12-29T12:05:03.195Z,92.40
2018-12-29T12:06:03.170Z,92.40
2018-12-29T12:07:03.183Z,92.30
2018-12-29T12:08:03.150Z,92.34
2018-12-29T12:09:03.138Z,93.37
2018-12-29T12:10:03.129Z,93.06
2018-12-29T12:11:03.124Z,93.54
2018-12-29T12:12:03.125Z,93.12
2018-12-29T12:13:03.108Z,92.91
2018-12-29T12:14:03.081Z,93.33
2018-12-29T12:15:03.070Z,93.33
2018-12-29T12:16:03.059Z,93.33
2018-12-29T12:17:03.087Z,92.19
2018-12-29T12:18:03.036Z,92.09
2018-12-29T12:19:03.037Z,92.81
2018-12-29T12:20:03.016Z,92.40
2018-12-29T12:21:03.002Z,92.50
2018-12-29T12:22:03.015Z,92.09
2018-12-29T12:23:02.998Z,92.91
2018-12-29T12:24:02.969Z,93.54
2018-12-29T12:25:02.957Z,93.12
2018-12-29T12:26:02.945Z,93.12
2018-12-29T12:27:02.963Z,93.54
2018-12-29T12:28:02.927Z,93.33
2018-12-29T12:29:02.931Z,93.33
2018-12-29T12:30:02.904Z,93.33
2018-12-29T12:31:02.892Z,93.54
2018-12-29T12:32:02.910Z,93.39
2018-12-29T12:33:02.868Z,93.39
2018-12-29T12:34:02.865Z,93.49
2018-12-29T12:35:02.860Z,92.42
2018-12-29T12:36:02.834Z,91.90
2018-12-29T12:37:02.851Z,91.59
2018-12-29T12:38:02.813Z,91.28
2018-12-29T12:39:02.801Z,91.90
2018-12-29T12:40:02.788Z,91.69
2018-12-29T12:41:02.794Z,92.00
2018-12-29T12:42:02.789Z,91.90
2018-12-29T12:43:02.754Z,91.69
2018-12-29T12:44:02.744Z,91.38
2018-12-29T12:45:02.734Z,91.38
2018-12-29T12:46:02.781Z,92.00
2018-12-29T12:47:02.749Z,92.11
2018-12-29T12:48:05.107Z,92.36
2018-12-29T12:49:02.688Z,93.29
2018-12-29T12:50:02.678Z,92.87
2018-12-29T12:51:02.670Z,93.18
2018-12-29T12:52:02.655Z,93.08